sensor_id;sensor_type;location;lat;lon;timestamp;P1;durP1;ratioP1;P2;durP2;ratioP2
55003;SDS011;40900;52.710;6.438;2023-02-21T00:02:29;46.33;;;27.73;;
55003;SDS011;40900;52.710;6.438;2023-02-21T00:05:13;45.78;;;25.98;;
55003;SDS011;40900;52.710;6.438;2023-02-21T00:07:57;39.40;;;26.50;;
55003;SDS011;40900;52.710;6.438;2023-02-21T00:10:42;46.15;;;26.20;;
55003;SDS011;40900;52.710;6.438;2023-02-21T00:13:26;45.33;;;26.52;;
55003;SDS011;40900;52.710;6.438;2023-02-21T00:16:16;41.15;;;24.85;;
55003;SDS011;40900;52.710;6.438;2023-02-21T00:19:01;43.28;;;25.42;;
55003;SDS011;40900;52.710;6.438;2023-02-21T00:21:46;48.83;;;23.65;;
55003;SDS011;40900;52.710;6.438;2023-02-21T00:24:31;45.70;;;23.58;;
55003;SDS011;40900;52.710;6.438;2023-02-21T00:27:15;40.67;;;23.83;;
55003;SDS011;40900;52.710;6.438;2023-02-21T00:29:59;46.13;;;24.70;;
55003;SDS011;40900;52.710;6.438;2023-02-21T00:32:43;40.47;;;24.00;;
55003;SDS011;40900;52.710;6.438;2023-02-21T00:35:28;42.90;;;23.10;;
55003;SDS011;40900;52.710;6.438;2023-02-21T00:38:12;49.78;;;24.20;;
55003;SDS011;40900;52.710;6.438;2023-02-21T00:40:56;45.75;;;22.75;;
55003;SDS011;40900;52.710;6.438;2023-02-21T00:43:41;39.47;;;23.13;;
55003;SDS011;40900;52.710;6.438;2023-02-21T00:46:25;38.00;;;21.88;;
55003;SDS011;40900;52.710;6.438;2023-02-21T00:49:09;42.40;;;21.77;;
55003;SDS011;40900;52.710;6.438;2023-02-21T00:51:53;40.95;;;23.23;;
55003;SDS011;40900;52.710;6.438;2023-02-21T00:54:38;43.20;;;22.48;;
55003;SDS011;40900;52.710;6.438;2023-02-21T00:57:22;39.90;;;22.33;;
55003;SDS011;40900;52.710;6.438;2023-02-21T01:00:07;41.25;;;21.88;;
55003;SDS011;40900;52.710;6.438;2023-02-21T01:02:56;38.53;;;22.52;;
55003;SDS011;40900;52.710;6.438;2023-02-21T01:05:40;50.72;;;24.00;;
55003;SDS011;40900;52.710;6.438;2023-02-21T01:08:25;41.85;;;23.73;;
55003;SDS011;40900;52.710;6.438;2023-02-21T01:11:13;49.83;;;24.17;;
55003;SDS011;40900;52.710;6.438;2023-02-21T01:14:01;42.30;;;25.13;;
55003;SDS011;40900;52.710;6.438;2023-02-21T01:16:46;57.23;;;24.57;;
55003;SDS011;40900;52.710;6.438;2023-02-21T01:19:30;52.42;;;26.17;;
55003;SDS011;40900;52.710;6.438;2023-02-21T01:22:14;42.88;;;24.67;;
55003;SDS011;40900;52.710;6.438;2023-02-21T01:24:59;48.85;;;25.40;;
55003;SDS011;40900;52.710;6.438;2023-02-21T01:27:43;44.67;;;25.58;;
55003;SDS011;40900;52.710;6.438;2023-02-21T01:30:27;51.47;;;25.83;;
55003;SDS011;40900;52.710;6.438;2023-02-21T01:33:12;46.90;;;25.73;;
55003;SDS011;40900;52.710;6.438;2023-02-21T01:35:56;44.65;;;26.52;;
55003;SDS011;40900;52.710;6.438;2023-02-21T01:38:40;56.42;;;27.85;;
55003;SDS011;40900;52.710;6.438;2023-02-21T01:41:25;49.45;;;26.60;;
55003;SDS011;40900;52.710;6.438;2023-02-21T01:47:25;46.15;;;26.98;;
55003;SDS011;40900;52.710;6.438;2023-02-21T01:53:10;55.08;;;26.85;;
55003;SDS011;40900;52.710;6.438;2023-02-21T01:55:57;52.78;;;27.00;;
55003;SDS011;40900;52.710;6.438;2023-02-21T01:58:44;50.42;;;26.35;;
55003;SDS011;40900;52.710;6.438;2023-02-21T02:04:17;48.63;;;26.67;;
55003;SDS011;40900;52.710;6.438;2023-02-21T02:07:02;49.58;;;26.73;;
55003;SDS011;40900;52.710;6.438;2023-02-21T02:09:46;54.20;;;26.90;;
55003;SDS011;40900;52.710;6.438;2023-02-21T02:37:09;54.58;;;30.65;;
55003;SDS011;40900;52.710;6.438;2023-02-21T02:43:00;51.15;;;30.33;;
55003;SDS011;40900;52.710;6.438;2023-02-21T02:49:01;51.65;;;29.02;;
55003;SDS011;40900;52.710;6.438;2023-02-21T02:54:03;52.17;;;28.63;;
55003;SDS011;40900;52.710;6.438;2023-02-21T02:56:29;52.20;;;30.77;;
55003;SDS011;40900;52.710;6.438;2023-02-21T02:58:57;52.85;;;30.52;;
55003;SDS011;40900;52.710;6.438;2023-02-21T03:17:47;49.10;;;28.90;;
55003;SDS011;40900;52.710;6.438;2023-02-21T03:20:17;50.10;;;29.98;;
55003;SDS011;40900;52.710;6.438;2023-02-21T03:22:45;50.50;;;28.90;;
55003;SDS011;40900;52.710;6.438;2023-02-21T03:25:12;50.95;;;29.48;;
55003;SDS011;40900;52.710;6.438;2023-02-21T03:27:39;52.30;;;30.10;;
55003;SDS011;40900;52.710;6.438;2023-02-21T03:30:07;51.35;;;29.75;;
55003;SDS011;40900;52.710;6.438;2023-02-21T03:32:46;48.70;;;29.05;;
55003;SDS011;40900;52.710;6.438;2023-02-21T03:35:16;49.63;;;30.40;;
55003;SDS011;40900;52.710;6.438;2023-02-21T03:37:44;46.65;;;29.67;;
55003;SDS011;40900;52.710;6.438;2023-02-21T03:40:23;51.97;;;30.08;;
55003;SDS011;40900;52.710;6.438;2023-02-21T03:42:55;48.72;;;30.17;;
55003;SDS011;40900;52.710;6.438;2023-02-21T03:45:22;49.83;;;29.80;;
55003;SDS011;40900;52.710;6.438;2023-02-21T03:47:47;51.58;;;31.63;;
55003;SDS011;40900;52.710;6.438;2023-02-21T03:50:13;52.15;;;32.65;;
55003;SDS011;40900;52.710;6.438;2023-02-21T03:52:39;51.90;;;32.30;;
55003;SDS011;40900;52.710;6.438;2023-02-21T03:55:06;49.67;;;32.38;;
55003;SDS011;40900;52.710;6.438;2023-02-21T03:57:35;50.13;;;31.10;;
55003;SDS011;40900;52.710;6.438;2023-02-21T04:00:01;55.65;;;31.70;;
55003;SDS011;40900;52.710;6.438;2023-02-21T04:02:27;53.75;;;32.83;;
55003;SDS011;40900;52.710;6.438;2023-02-21T04:04:52;54.42;;;34.25;;
55003;SDS011;40900;52.710;6.438;2023-02-21T04:07:19;55.75;;;32.63;;
55003;SDS011;40900;52.710;6.438;2023-02-21T04:09:46;52.22;;;32.25;;
55003;SDS011;40900;52.710;6.438;2023-02-21T04:12:12;51.47;;;31.67;;
55003;SDS011;40900;52.710;6.438;2023-02-21T04:14:38;54.25;;;33.60;;
55003;SDS011;40900;52.710;6.438;2023-02-21T04:17:04;56.17;;;32.45;;
55003;SDS011;40900;52.710;6.438;2023-02-21T04:19:30;56.05;;;33.17;;
55003;SDS011;40900;52.710;6.438;2023-02-21T04:21:56;53.17;;;34.25;;
55003;SDS011;40900;52.710;6.438;2023-02-21T04:24:22;54.95;;;32.38;;
55003;SDS011;40900;52.710;6.438;2023-02-21T04:26:47;61.95;;;34.78;;
55003;SDS011;40900;52.710;6.438;2023-02-21T04:29:13;60.20;;;33.17;;
55003;SDS011;40900;52.710;6.438;2023-02-21T04:31:39;53.03;;;34.22;;
55003;SDS011;40900;52.710;6.438;2023-02-21T04:34:05;57.13;;;32.90;;
55003;SDS011;40900;52.710;6.438;2023-02-21T04:36:31;53.85;;;33.33;;
55003;SDS011;40900;52.710;6.438;2023-02-21T04:38:57;59.03;;;34.25;;
55003;SDS011;40900;52.710;6.438;2023-02-21T04:41:22;55.00;;;34.42;;
55003;SDS011;40900;52.710;6.438;2023-02-21T04:43:48;59.80;;;36.70;;
55003;SDS011;40900;52.710;6.438;2023-02-21T04:46:15;54.00;;;33.72;;
55003;SDS011;40900;52.710;6.438;2023-02-21T04:48:45;59.22;;;35.47;;
55003;SDS011;40900;52.710;6.438;2023-02-21T04:51:14;54.47;;;34.72;;
55003;SDS011;40900;52.710;6.438;2023-02-21T04:53:41;56.75;;;35.70;;
55003;SDS011;40900;52.710;6.438;2023-02-21T04:56:07;55.88;;;36.50;;
55003;SDS011;40900;52.710;6.438;2023-02-21T04:58:33;64.38;;;36.75;;
55003;SDS011;40900;52.710;6.438;2023-02-21T05:00:59;65.85;;;38.35;;
55003;SDS011;40900;52.710;6.438;2023-02-21T05:03:24;62.65;;;38.35;;
55003;SDS011;40900;52.710;6.438;2023-02-21T05:05:50;62.88;;;37.17;;
55003;SDS011;40900;52.710;6.438;2023-02-21T05:08:16;60.90;;;37.47;;
55003;SDS011;40900;52.710;6.438;2023-02-21T05:10:41;59.65;;;39.30;;
55003;SDS011;40900;52.710;6.438;2023-02-21T05:13:07;59.55;;;37.80;;
55003;SDS011;40900;52.710;6.438;2023-02-21T05:15:33;64.30;;;39.50;;
55003;SDS011;40900;52.710;6.438;2023-02-21T05:17:59;66.68;;;38.92;;
55003;SDS011;40900;52.710;6.438;2023-02-21T05:20:24;67.30;;;38.88;;
55003;SDS011;40900;52.710;6.438;2023-02-21T05:22:50;58.78;;;37.47;;
55003;SDS011;40900;52.710;6.438;2023-02-21T05:25:16;70.60;;;39.38;;
55003;SDS011;40900;52.710;6.438;2023-02-21T05:27:44;61.50;;;37.30;;
55003;SDS011;40900;52.710;6.438;2023-02-21T05:30:11;65.82;;;39.70;;
55003;SDS011;40900;52.710;6.438;2023-02-21T05:32:38;60.97;;;39.63;;
55003;SDS011;40900;52.710;6.438;2023-02-21T05:35:04;61.75;;;37.88;;
55003;SDS011;40900;52.710;6.438;2023-02-21T05:37:30;56.67;;;37.45;;
55003;SDS011;40900;52.710;6.438;2023-02-21T05:39:56;69.70;;;39.58;;
55003;SDS011;40900;52.710;6.438;2023-02-21T05:42:22;62.38;;;39.55;;
55003;SDS011;40900;52.710;6.438;2023-02-21T05:44:48;61.50;;;38.20;;
55003;SDS011;40900;52.710;6.438;2023-02-21T05:47:13;76.03;;;39.50;;
55003;SDS011;40900;52.710;6.438;2023-02-21T05:49:40;61.65;;;38.42;;
55003;SDS011;40900;52.710;6.438;2023-02-21T05:52:07;65.60;;;38.80;;
55003;SDS011;40900;52.710;6.438;2023-02-21T05:54:35;64.80;;;38.97;;
55003;SDS011;40900;52.710;6.438;2023-02-21T05:57:01;64.72;;;39.60;;
55003;SDS011;40900;52.710;6.438;2023-02-21T05:59:27;64.40;;;37.17;;
55003;SDS011;40900;52.710;6.438;2023-02-21T06:01:53;59.15;;;38.10;;
55003;SDS011;40900;52.710;6.438;2023-02-21T06:04:19;74.40;;;40.28;;
55003;SDS011;40900;52.710;6.438;2023-02-21T06:06:45;66.60;;;41.25;;
55003;SDS011;40900;52.710;6.438;2023-02-21T06:09:11;65.57;;;39.17;;
55003;SDS011;40900;52.710;6.438;2023-02-21T06:11:37;68.93;;;41.30;;
55003;SDS011;40900;52.710;6.438;2023-02-21T06:14:11;70.18;;;39.38;;
55003;SDS011;40900;52.710;6.438;2023-02-21T06:16:39;71.57;;;40.97;;
55003;SDS011;40900;52.710;6.438;2023-02-21T06:19:05;60.97;;;39.38;;
55003;SDS011;40900;52.710;6.438;2023-02-21T06:21:32;66.75;;;40.55;;
55003;SDS011;40900;52.710;6.438;2023-02-21T06:23:59;68.40;;;40.80;;
55003;SDS011;40900;52.710;6.438;2023-02-21T06:26:25;68.85;;;41.13;;
55003;SDS011;40900;52.710;6.438;2023-02-21T06:28:51;71.40;;;42.10;;
55003;SDS011;40900;52.710;6.438;2023-02-21T06:31:17;66.13;;;42.95;;
55003;SDS011;40900;52.710;6.438;2023-02-21T06:33:45;65.00;;;39.55;;
55003;SDS011;40900;52.710;6.438;2023-02-21T06:36:21;75.13;;;42.33;;
55003;SDS011;40900;52.710;6.438;2023-02-21T06:38:49;75.38;;;44.35;;
55003;SDS011;40900;52.710;6.438;2023-02-21T06:41:17;72.20;;;45.35;;
55003;SDS011;40900;52.710;6.438;2023-02-21T06:43:44;76.60;;;43.58;;
55003;SDS011;40900;52.710;6.438;2023-02-21T06:46:14;82.80;;;45.05;;
55003;SDS011;40900;52.710;6.438;2023-02-21T06:48:44;77.63;;;42.67;;
55003;SDS011;40900;52.710;6.438;2023-02-21T06:51:09;75.90;;;44.33;;
55003;SDS011;40900;52.710;6.438;2023-02-21T06:53:36;76.22;;;46.47;;
55003;SDS011;40900;52.710;6.438;2023-02-21T06:56:02;74.07;;;44.38;;
55003;SDS011;40900;52.710;6.438;2023-02-21T06:58:28;76.13;;;46.97;;
55003;SDS011;40900;52.710;6.438;2023-02-21T07:00:54;75.07;;;43.28;;
55003;SDS011;40900;52.710;6.438;2023-02-21T07:03:20;76.60;;;46.20;;
55003;SDS011;40900;52.710;6.438;2023-02-21T07:05:46;80.38;;;45.25;;
55003;SDS011;40900;52.710;6.438;2023-02-21T07:08:11;77.85;;;44.15;;
55003;SDS011;40900;52.710;6.438;2023-02-21T07:10:37;74.72;;;45.03;;
55003;SDS011;40900;52.710;6.438;2023-02-21T07:13:03;69.18;;;43.08;;
55003;SDS011;40900;52.710;6.438;2023-02-21T07:15:28;71.40;;;43.95;;
55003;SDS011;40900;52.710;6.438;2023-02-21T07:17:54;77.95;;;44.83;;
55003;SDS011;40900;52.710;6.438;2023-02-21T07:20:20;78.03;;;43.00;;
55003;SDS011;40900;52.710;6.438;2023-02-21T07:22:46;77.55;;;44.40;;
55003;SDS011;40900;52.710;6.438;2023-02-21T07:25:16;83.95;;;47.28;;
55003;SDS011;40900;52.710;6.438;2023-02-21T07:27:43;74.80;;;44.70;;
55003;SDS011;40900;52.710;6.438;2023-02-21T07:30:11;75.25;;;44.92;;
55003;SDS011;40900;52.710;6.438;2023-02-21T07:32:38;74.70;;;43.83;;
55003;SDS011;40900;52.710;6.438;2023-02-21T07:35:04;73.90;;;46.25;;
55003;SDS011;40900;52.710;6.438;2023-02-21T07:37:30;79.47;;;44.78;;
55003;SDS011;40900;52.710;6.438;2023-02-21T07:39:56;84.45;;;47.78;;
55003;SDS011;40900;52.710;6.438;2023-02-21T07:42:21;75.40;;;44.58;;
55003;SDS011;40900;52.710;6.438;2023-02-21T07:44:47;79.60;;;47.72;;
55003;SDS011;40900;52.710;6.438;2023-02-21T07:47:13;72.57;;;44.53;;
55003;SDS011;40900;52.710;6.438;2023-02-21T07:49:39;77.70;;;47.13;;
55003;SDS011;40900;52.710;6.438;2023-02-21T07:52:05;77.75;;;44.83;;
55003;SDS011;40900;52.710;6.438;2023-02-21T07:54:31;79.47;;;44.65;;
55003;SDS011;40900;52.710;6.438;2023-02-21T07:56:57;83.18;;;46.30;;
55003;SDS011;40900;52.710;6.438;2023-02-21T07:59:23;80.10;;;47.60;;
55003;SDS011;40900;52.710;6.438;2023-02-21T08:01:49;76.57;;;46.38;;
55003;SDS011;40900;52.710;6.438;2023-02-21T08:04:15;76.95;;;44.80;;
55003;SDS011;40900;52.710;6.438;2023-02-21T08:06:45;81.13;;;44.80;;
55003;SDS011;40900;52.710;6.438;2023-02-21T08:09:12;77.38;;;46.40;;
55003;SDS011;40900;52.710;6.438;2023-02-21T08:11:38;75.07;;;46.33;;
55003;SDS011;40900;52.710;6.438;2023-02-21T08:14:04;84.68;;;49.22;;
55003;SDS011;40900;52.710;6.438;2023-02-21T08:16:30;82.55;;;49.30;;
55003;SDS011;40900;52.710;6.438;2023-02-21T08:18:56;83.95;;;49.03;;
55003;SDS011;40900;52.710;6.438;2023-02-21T08:21:22;78.78;;;48.20;;
55003;SDS011;40900;52.710;6.438;2023-02-21T08:23:50;78.47;;;46.70;;
55003;SDS011;40900;52.710;6.438;2023-02-21T08:26:18;85.80;;;50.45;;
55003;SDS011;40900;52.710;6.438;2023-02-21T08:28:44;77.03;;;47.63;;
55003;SDS011;40900;52.710;6.438;2023-02-21T08:31:10;84.28;;;49.33;;
55003;SDS011;40900;52.710;6.438;2023-02-21T08:33:36;82.18;;;48.88;;
55003;SDS011;40900;52.710;6.438;2023-02-21T08:36:02;92.20;;;50.85;;
55003;SDS011;40900;52.710;6.438;2023-02-21T08:38:28;91.05;;;50.70;;
55003;SDS011;40900;52.710;6.438;2023-02-21T08:40:53;84.60;;;50.15;;
55003;SDS011;40900;52.710;6.438;2023-02-21T08:43:19;82.15;;;50.97;;
55003;SDS011;40900;52.710;6.438;2023-02-21T08:45:45;89.03;;;48.40;;
55003;SDS011;40900;52.710;6.438;2023-02-21T08:48:11;87.38;;;51.45;;
55003;SDS011;40900;52.710;6.438;2023-02-21T08:50:37;92.75;;;51.50;;
55003;SDS011;40900;52.710;6.438;2023-02-21T08:53:02;85.45;;;48.90;;
55003;SDS011;40900;52.710;6.438;2023-02-21T08:55:28;79.93;;;49.90;;
55003;SDS011;40900;52.710;6.438;2023-02-21T08:57:54;87.60;;;51.10;;
55003;SDS011;40900;52.710;6.438;2023-02-21T09:00:21;83.78;;;50.17;;
55003;SDS011;40900;52.710;6.438;2023-02-21T09:02:48;88.85;;;50.47;;
55003;SDS011;40900;52.710;6.438;2023-02-21T09:05:17;93.63;;;50.70;;
55003;SDS011;40900;52.710;6.438;2023-02-21T09:07:51;88.68;;;51.53;;
55003;SDS011;40900;52.710;6.438;2023-02-21T09:10:23;85.22;;;49.92;;
55003;SDS011;40900;52.710;6.438;2023-02-21T09:12:50;93.20;;;50.25;;
55003;SDS011;40900;52.710;6.438;2023-02-21T09:15:16;84.80;;;50.08;;
55003;SDS011;40900;52.710;6.438;2023-02-21T09:17:42;99.97;;;51.42;;
55003;SDS011;40900;52.710;6.438;2023-02-21T09:20:11;85.35;;;49.63;;
55003;SDS011;40900;52.710;6.438;2023-02-21T09:22:43;83.60;;;48.97;;
55003;SDS011;40900;52.710;6.438;2023-02-21T09:25:10;87.65;;;48.70;;
55003;SDS011;40900;52.710;6.438;2023-02-21T09:27:38;83.72;;;50.97;;
55003;SDS011;40900;52.710;6.438;2023-02-21T09:30:05;78.95;;;47.72;;
55003;SDS011;40900;52.710;6.438;2023-02-21T09:32:36;88.72;;;50.22;;
55003;SDS011;40900;52.710;6.438;2023-02-21T09:35:02;75.75;;;46.70;;
55003;SDS011;40900;52.710;6.438;2023-02-21T09:37:29;83.65;;;48.33;;
55003;SDS011;40900;52.710;6.438;2023-02-21T09:39:55;79.47;;;50.08;;
55003;SDS011;40900;52.710;6.438;2023-02-21T09:42:21;84.75;;;49.30;;
55003;SDS011;40900;52.710;6.438;2023-02-21T09:44:52;77.68;;;49.30;;
55003;SDS011;40900;52.710;6.438;2023-02-21T09:47:25;74.68;;;48.40;;
55003;SDS011;40900;52.710;6.438;2023-02-21T09:49:58;74.53;;;46.63;;
55003;SDS011;40900;52.710;6.438;2023-02-21T09:52:29;78.03;;;47.58;;
55003;SDS011;40900;52.710;6.438;2023-02-21T09:57:48;74.40;;;47.42;;
55003;SDS011;40900;52.710;6.438;2023-02-21T10:00:17;76.75;;;47.63;;
55003;SDS011;40900;52.710;6.438;2023-02-21T10:02:50;69.82;;;46.95;;
55003;SDS011;40900;52.710;6.438;2023-02-21T10:05:31;77.78;;;46.65;;
55003;SDS011;40900;52.710;6.438;2023-02-21T10:08:06;69.55;;;44.10;;
55003;SDS011;40900;52.710;6.438;2023-02-21T10:10:43;75.00;;;46.95;;
55003;SDS011;40900;52.710;6.438;2023-02-21T10:16:07;68.88;;;45.30;;
55003;SDS011;40900;52.710;6.438;2023-02-21T10:18:37;69.90;;;44.63;;
55003;SDS011;40900;52.710;6.438;2023-02-21T10:21:20;72.22;;;46.38;;
55003;SDS011;40900;52.710;6.438;2023-02-21T10:23:51;67.60;;;44.60;;
55003;SDS011;40900;52.710;6.438;2023-02-21T10:26:23;82.18;;;50.38;;
55003;SDS011;40900;52.710;6.438;2023-02-21T10:28:52;79.10;;;49.10;;
55003;SDS011;40900;52.710;6.438;2023-02-21T10:31:19;79.28;;;48.33;;
55003;SDS011;40900;52.710;6.438;2023-02-21T10:33:53;75.82;;;48.33;;
55003;SDS011;40900;52.710;6.438;2023-02-21T10:36:20;78.75;;;47.28;;
55003;SDS011;40900;52.710;6.438;2023-02-21T10:41:38;75.35;;;47.08;;
55003;SDS011;40900;52.710;6.438;2023-02-21T10:44:17;71.40;;;48.17;;
55003;SDS011;40900;52.710;6.438;2023-02-21T10:52:25;71.78;;;48.00;;
55003;SDS011;40900;52.710;6.438;2023-02-21T10:57:29;86.00;;;50.67;;
55003;SDS011;40900;52.710;6.438;2023-02-21T10:59:57;77.18;;;48.95;;
55003;SDS011;40900;52.710;6.438;2023-02-21T11:04:55;74.80;;;48.67;;
55003;SDS011;40900;52.710;6.438;2023-02-21T11:07:30;77.25;;;50.45;;
55003;SDS011;40900;52.710;6.438;2023-02-21T11:09:56;77.80;;;48.03;;
55003;SDS011;40900;52.710;6.438;2023-02-21T11:12:24;71.28;;;47.60;;
55003;SDS011;40900;52.710;6.438;2023-02-21T11:22:42;73.88;;;47.20;;
55003;SDS011;40900;52.710;6.438;2023-02-21T11:28:03;72.57;;;47.45;;
55003;SDS011;40900;52.710;6.438;2023-02-21T11:33:25;70.22;;;47.65;;
55003;SDS011;40900;52.710;6.438;2023-02-21T11:35:53;71.18;;;48.72;;
55003;SDS011;40900;52.710;6.438;2023-02-21T11:41:02;72.68;;;48.58;;
55003;SDS011;40900;52.710;6.438;2023-02-21T11:43:44;66.65;;;46.30;;
55003;SDS011;40900;52.710;6.438;2023-02-21T11:48:59;75.07;;;49.00;;
55003;SDS011;40900;52.710;6.438;2023-02-21T11:51:33;72.47;;;47.17;;
55003;SDS011;40900;52.710;6.438;2023-02-21T11:54:07;67.47;;;46.03;;
55003;SDS011;40900;52.710;6.438;2023-02-21T11:59:05;77.03;;;48.17;;
55003;SDS011;40900;52.710;6.438;2023-02-21T12:04:35;78.55;;;49.50;;
55003;SDS011;40900;52.710;6.438;2023-02-21T12:12:29;76.43;;;49.20;;
55003;SDS011;40900;52.710;6.438;2023-02-21T12:15:13;78.55;;;50.03;;
55003;SDS011;40900;52.710;6.438;2023-02-21T12:23:53;87.13;;;51.63;;
55003;SDS011;40900;52.710;6.438;2023-02-21T12:31:52;83.68;;;52.60;;
55003;SDS011;40900;52.710;6.438;2023-02-21T12:45:14;100.05;;;57.38;;
55003;SDS011;40900;52.710;6.438;2023-02-21T12:47:59;102.95;;;57.33;;
55003;SDS011;40900;52.710;6.438;2023-02-21T12:50:35;102.82;;;58.25;;
55003;SDS011;40900;52.710;6.438;2023-02-21T12:53:19;105.05;;;59.45;;
55003;SDS011;40900;52.710;6.438;2023-02-21T12:58:44;102.82;;;57.42;;
55003;SDS011;40900;52.710;6.438;2023-02-21T13:01:23;106.53;;;58.15;;
55003;SDS011;40900;52.710;6.438;2023-02-21T13:10:47;96.38;;;55.85;;
55003;SDS011;40900;52.710;6.438;2023-02-21T13:12:58;103.63;;;58.35;;
55003;SDS011;40900;52.710;6.438;2023-02-21T13:15:31;95.97;;;58.10;;
55003;SDS011;40900;52.710;6.438;2023-02-21T13:17:59;106.72;;;60.05;;
55003;SDS011;40900;52.710;6.438;2023-02-21T13:20:32;103.03;;;57.92;;
55003;SDS011;40900;52.710;6.438;2023-02-21T13:29:27;101.97;;;58.70;;
55003;SDS011;40900;52.710;6.438;2023-02-21T13:31:58;92.55;;;55.63;;
55003;SDS011;40900;52.710;6.438;2023-02-21T13:35:17;106.35;;;58.90;;
55003;SDS011;40900;52.710;6.438;2023-02-21T13:37:29;99.68;;;57.85;;
55003;SDS011;40900;52.710;6.438;2023-02-21T13:40:11;103.13;;;58.65;;
55003;SDS011;40900;52.710;6.438;2023-02-21T13:42:47;96.47;;;57.83;;
55003;SDS011;40900;52.710;6.438;2023-02-21T13:45:25;94.60;;;56.53;;
55003;SDS011;40900;52.710;6.438;2023-02-21T13:55:35;95.78;;;54.15;;
55003;SDS011;40900;52.710;6.438;2023-02-21T13:58:28;93.65;;;53.95;;
55003;SDS011;40900;52.710;6.438;2023-02-21T14:03:49;92.53;;;55.28;;
55003;SDS011;40900;52.710;6.438;2023-02-21T14:08:46;89.47;;;55.22;;
55003;SDS011;40900;52.710;6.438;2023-02-21T14:11:20;100.85;;;54.10;;
55003;SDS011;40900;52.710;6.438;2023-02-21T14:13:48;89.43;;;53.35;;
55003;SDS011;40900;52.710;6.438;2023-02-21T14:19:05;94.20;;;55.08;;
55003;SDS011;40900;52.710;6.438;2023-02-21T14:21:34;87.15;;;53.75;;
55003;SDS011;40900;52.710;6.438;2023-02-21T14:24:01;97.60;;;56.33;;
55003;SDS011;40900;52.710;6.438;2023-02-21T14:26:39;92.10;;;54.42;;
55003;SDS011;40900;52.710;6.438;2023-02-21T14:34:51;99.65;;;55.83;;
55003;SDS011;40900;52.710;6.438;2023-02-21T14:37:29;93.57;;;52.80;;
55003;SDS011;40900;52.710;6.438;2023-02-21T14:45:49;102.80;;;56.25;;
55003;SDS011;40900;52.710;6.438;2023-02-21T14:54:07;104.25;;;55.63;;
55003;SDS011;40900;52.710;6.438;2023-02-21T14:57:01;97.90;;;55.00;;
55003;SDS011;40900;52.710;6.438;2023-02-21T15:05:09;112.47;;;57.42;;
55003;SDS011;40900;52.710;6.438;2023-02-21T15:10:21;99.45;;;55.70;;
55003;SDS011;40900;52.710;6.438;2023-02-21T15:12:52;101.18;;;55.75;;
55003;SDS011;40900;52.710;6.438;2023-02-21T15:15:31;97.32;;;54.63;;
55003;SDS011;40900;52.710;6.438;2023-02-21T15:18:07;111.07;;;57.00;;
55003;SDS011;40900;52.710;6.438;2023-02-21T15:20:46;102.43;;;53.97;;
55003;SDS011;40900;52.710;6.438;2023-02-21T15:23:40;96.97;;;53.53;;
55003;SDS011;40900;52.710;6.438;2023-02-21T15:26:20;94.35;;;51.88;;
55003;SDS011;40900;52.710;6.438;2023-02-21T15:31:31;95.72;;;52.00;;
55003;SDS011;40900;52.710;6.438;2023-02-21T15:33:59;92.07;;;52.58;;
55003;SDS011;40900;52.710;6.438;2023-02-21T15:36:25;97.40;;;52.88;;
55003;SDS011;40900;52.710;6.438;2023-02-21T15:41:41;100.22;;;52.75;;
55003;SDS011;40900;52.710;6.438;2023-02-21T15:44:12;105.72;;;53.35;;
55003;SDS011;40900;52.710;6.438;2023-02-21T15:52:39;105.13;;;52.53;;
55003;SDS011;40900;52.710;6.438;2023-02-21T16:00:29;102.35;;;54.97;;
55003;SDS011;40900;52.710;6.438;2023-02-21T16:06:11;109.45;;;52.67;;
55003;SDS011;40900;52.710;6.438;2023-02-21T16:14:58;107.60;;;52.05;;
55003;SDS011;40900;52.710;6.438;2023-02-21T16:17:44;102.20;;;49.45;;
55003;SDS011;40900;52.710;6.438;2023-02-21T16:22:39;104.75;;;50.78;;
55003;SDS011;40900;52.710;6.438;2023-02-21T16:27:44;101.50;;;51.05;;
55003;SDS011;40900;52.710;6.438;2023-02-21T16:30:24;105.75;;;51.05;;
55003;SDS011;40900;52.710;6.438;2023-02-21T16:32:52;102.13;;;50.28;;
55003;SDS011;40900;52.710;6.438;2023-02-21T16:35:23;97.93;;;48.70;;
55003;SDS011;40900;52.710;6.438;2023-02-21T16:37:51;90.20;;;47.50;;
55003;SDS011;40900;52.710;6.438;2023-02-21T16:40:22;94.47;;;48.17;;
55003;SDS011;40900;52.710;6.438;2023-02-21T16:42:50;89.70;;;44.97;;
55003;SDS011;40900;52.710;6.438;2023-02-21T16:45:17;94.97;;;47.08;;
55003;SDS011;40900;52.710;6.438;2023-02-21T16:47:43;98.10;;;48.53;;
55003;SDS011;40900;52.710;6.438;2023-02-21T16:50:20;110.15;;;50.45;;
55003;SDS011;40900;52.710;6.438;2023-02-21T16:52:50;95.88;;;45.63;;
55003;SDS011;40900;52.710;6.438;2023-02-21T16:55:16;90.85;;;45.22;;
55003;SDS011;40900;52.710;6.438;2023-02-21T16:57:50;95.30;;;48.35;;
55003;SDS011;40900;52.710;6.438;2023-02-21T17:00:19;89.20;;;44.87;;
55003;SDS011;40900;52.710;6.438;2023-02-21T17:02:49;96.25;;;47.85;;
55003;SDS011;40900;52.710;6.438;2023-02-21T17:05:16;93.32;;;45.78;;
55003;SDS011;40900;52.710;6.438;2023-02-21T17:07:42;94.82;;;46.33;;
55003;SDS011;40900;52.710;6.438;2023-02-21T17:10:09;84.40;;;42.78;;
55003;SDS011;40900;52.710;6.438;2023-02-21T17:12:35;89.93;;;42.88;;
55003;SDS011;40900;52.710;6.438;2023-02-21T17:15:01;85.85;;;42.80;;
55003;SDS011;40900;52.710;6.438;2023-02-21T17:17:27;90.30;;;42.60;;
55003;SDS011;40900;52.710;6.438;2023-02-21T17:19:53;83.70;;;40.70;;
55003;SDS011;40900;52.710;6.438;2023-02-21T17:22:19;78.40;;;37.67;;
55003;SDS011;40900;52.710;6.438;2023-02-21T17:24:45;79.40;;;37.60;;
55003;SDS011;40900;52.710;6.438;2023-02-21T17:27:11;82.57;;;38.90;;
55003;SDS011;40900;52.710;6.438;2023-02-21T17:29:37;80.93;;;37.55;;
55003;SDS011;40900;52.710;6.438;2023-02-21T17:32:02;76.95;;;37.80;;
55003;SDS011;40900;52.710;6.438;2023-02-21T17:34:34;74.03;;;35.55;;
55003;SDS011;40900;52.710;6.438;2023-02-21T17:37:00;75.65;;;36.90;;
55003;SDS011;40900;52.710;6.438;2023-02-21T17:39:26;72.57;;;35.85;;
55003;SDS011;40900;52.710;6.438;2023-02-21T17:41:52;83.97;;;38.78;;
55003;SDS011;40900;52.710;6.438;2023-02-21T17:44:18;73.43;;;37.28;;
55003;SDS011;40900;52.710;6.438;2023-02-21T17:46:48;72.07;;;35.67;;
55003;SDS011;40900;52.710;6.438;2023-02-21T17:49:16;80.75;;;36.28;;
55003;SDS011;40900;52.710;6.438;2023-02-21T17:51:43;72.15;;;34.35;;
55003;SDS011;40900;52.710;6.438;2023-02-21T17:54:11;73.25;;;35.70;;
55003;SDS011;40900;52.710;6.438;2023-02-21T17:56:38;83.43;;;37.55;;
55003;SDS011;40900;52.710;6.438;2023-02-21T17:59:03;77.65;;;37.35;;
55003;SDS011;40900;52.710;6.438;2023-02-21T18:01:29;85.32;;;39.08;;
55003;SDS011;40900;52.710;6.438;2023-02-21T18:03:55;85.00;;;39.35;;
55003;SDS011;40900;52.710;6.438;2023-02-21T18:06:21;79.38;;;37.78;;
55003;SDS011;40900;52.710;6.438;2023-02-21T18:08:47;84.70;;;37.22;;
55003;SDS011;40900;52.710;6.438;2023-02-21T18:11:14;84.05;;;38.97;;
55003;SDS011;40900;52.710;6.438;2023-02-21T18:13:42;85.93;;;38.53;;
55003;SDS011;40900;52.710;6.438;2023-02-21T18:16:07;84.30;;;38.47;;
55003;SDS011;40900;52.710;6.438;2023-02-21T18:18:33;81.03;;;38.38;;
55003;SDS011;40900;52.710;6.438;2023-02-21T18:20:59;79.88;;;38.03;;
55003;SDS011;40900;52.710;6.438;2023-02-21T18:23:27;79.38;;;37.97;;